PILOTS ONLINE: 274    ATC ONLINE: 28

Location

IATA LUR
City Cape Lisburne
Country  United States
Latitude 68° 52' 30" N
Longitude 166° 6' 36" W
Elevation 16 ft
Type Medium Airport

Weather

METAR
2014/07/10 10:55
PALU 101055Z AUTO VRB02KT 10SM CLR 08/07 A2985 RMK AO2 SLP108 T00820068
TAF
2012/01/10 17:27
TAF TAF PALU 1017/1120 20020KT 8000 BLSN SKC QNH2972INS 
      BECMG 1100/1101 31012KT 9999 NSW SCT060 QNH2969INS TM23/1103Z TM29/1118Z 
      AMD 101723 LAST NO 
      AMDS

Runways

08/26 4800 ft / 135 ft

Outbound flights

Inbound flights


Spotted incorrect airport information? Please login with your VATSIM ID.